sensor_id;sensor_type;location;lat;lon;timestamp;temperature;humidity
63371;DHT22;49504;48.336;14.472;2023-02-28T00:00:37;25.40;39.60
63371;DHT22;49504;48.336;14.472;2023-02-28T00:03:58;25.50;40.30
63371;DHT22;49504;48.336;14.472;2023-02-28T00:07:20;25.40;40.90
63371;DHT22;49504;48.336;14.472;2023-02-28T00:10:41;25.40;40.10
63371;DHT22;49504;48.336;14.472;2023-02-28T00:14:02;25.40;40.20
63371;DHT22;49504;48.336;14.472;2023-02-28T00:17:24;25.40;40.20
63371;DHT22;49504;48.336;14.472;2023-02-28T00:20:45;25.50;40.30
63371;DHT22;49504;48.336;14.472;2023-02-28T00:24:07;25.50;40.30
63371;DHT22;49504;48.336;14.472;2023-02-28T00:27:28;25.40;40.20
63371;DHT22;49504;48.336;14.472;2023-02-28T00:30:49;25.40;40.10
63371;DHT22;49504;48.336;14.472;2023-02-28T00:34:12;25.40;40.20
63371;DHT22;49504;48.336;14.472;2023-02-28T00:37:33;25.50;40.40
63371;DHT22;49504;48.336;14.472;2023-02-28T00:40:54;25.40;41.00
63371;DHT22;49504;48.336;14.472;2023-02-28T00:44:15;25.40;40.20
63371;DHT22;49504;48.336;14.472;2023-02-28T00:47:37;25.40;40.20
63371;DHT22;49504;48.336;14.472;2023-02-28T00:50:59;25.40;40.20
63371;DHT22;49504;48.336;14.472;2023-02-28T00:56:40;25.40;39.60
63371;DHT22;49504;48.336;14.472;2023-02-28T01:00:02;25.40;40.30
63371;DHT22;49504;48.336;14.472;2023-02-28T01:03:23;25.40;40.30
63371;DHT22;49504;48.336;14.472;2023-02-28T01:06:44;25.40;40.30
63371;DHT22;49504;48.336;14.472;2023-02-28T01:10:07;25.40;40.30
63371;DHT22;49504;48.336;14.472;2023-02-28T01:13:30;25.40;40.30
63371;DHT22;49504;48.336;14.472;2023-02-28T01:16:52;25.40;40.30
63371;DHT22;49504;48.336;14.472;2023-02-28T01:20:13;25.40;40.30
63371;DHT22;49504;48.336;14.472;2023-02-28T01:23:35;25.40;40.30
63371;DHT22;49504;48.336;14.472;2023-02-28T01:26:57;25.40;40.30
63371;DHT22;49504;48.336;14.472;2023-02-28T01:30:20;25.40;40.40
63371;DHT22;49504;48.336;14.472;2023-02-28T01:33:41;25.40;40.40
63371;DHT22;49504;48.336;14.472;2023-02-28T01:37:02;25.40;40.30
63371;DHT22;49504;48.336;14.472;2023-02-28T01:40:24;25.40;40.40
63371;DHT22;49504;48.336;14.472;2023-02-28T01:43:57;25.40;40.30
63371;DHT22;49504;48.336;14.472;2023-02-28T01:47:21;25.50;40.40
63371;DHT22;49504;48.336;14.472;2023-02-28T01:50:45;25.40;40.40
63371;DHT22;49504;48.336;14.472;2023-02-28T01:54:09;25.40;40.30
63371;DHT22;49504;48.336;14.472;2023-02-28T01:57:35;25.40;40.30
63371;DHT22;49504;48.336;14.472;2023-02-28T02:00:58;25.40;40.30
63371;DHT22;49504;48.336;14.472;2023-02-28T02:04:21;25.40;40.20
63371;DHT22;49504;48.336;14.472;2023-02-28T02:07:44;25.40;40.30
63371;DHT22;49504;48.336;14.472;2023-02-28T02:11:09;25.40;40.30
63371;DHT22;49504;48.336;14.472;2023-02-28T02:14:43;25.40;40.30
63371;DHT22;49504;48.336;14.472;2023-02-28T02:18:18;25.30;40.20
63371;DHT22;49504;48.336;14.472;2023-02-28T02:22:13;25.40;40.30
63371;DHT22;49504;48.336;14.472;2023-02-28T02:25:53;25.40;40.30
63371;DHT22;49504;48.336;14.472;2023-02-28T02:29:39;25.40;40.30
63371;DHT22;49504;48.336;14.472;2023-02-28T02:33:11;25.40;40.30
63371;DHT22;49504;48.336;14.472;2023-02-28T02:36:49;25.40;40.30
63371;DHT22;49504;48.336;14.472;2023-02-28T02:40:16;25.40;40.30
63371;DHT22;49504;48.336;14.472;2023-02-28T02:43:44;25.40;40.20
63371;DHT22;49504;48.336;14.472;2023-02-28T02:47:10;25.40;40.30
63371;DHT22;49504;48.336;14.472;2023-02-28T02:50:36;25.30;40.90
63371;DHT22;49504;48.336;14.472;2023-02-28T02:54:04;25.40;40.30
63371;DHT22;49504;48.336;14.472;2023-02-28T02:57:34;25.40;40.30
63371;DHT22;49504;48.336;14.472;2023-02-28T03:01:00;25.40;40.30
63371;DHT22;49504;48.336;14.472;2023-02-28T03:04:24;25.30;40.20
63371;DHT22;49504;48.336;14.472;2023-02-28T03:07:47;25.30;40.20
63371;DHT22;49504;48.336;14.472;2023-02-28T03:11:13;25.40;40.30
63371;DHT22;49504;48.336;14.472;2023-02-28T03:14:51;25.30;40.20
63371;DHT22;49504;48.336;14.472;2023-02-28T03:21:51;25.30;39.60
63371;DHT22;49504;48.336;14.472;2023-02-28T03:25:22;25.30;40.10
63371;DHT22;49504;48.336;14.472;2023-02-28T03:28:53;25.30;40.90
63371;DHT22;49504;48.336;14.472;2023-02-28T03:32:24;25.30;40.20
63371;DHT22;49504;48.336;14.472;2023-02-28T03:35:51;25.30;40.20
63371;DHT22;49504;48.336;14.472;2023-02-28T03:39:18;25.30;40.20
63371;DHT22;49504;48.336;14.472;2023-02-28T03:42:45;25.30;40.20
63371;DHT22;49504;48.336;14.472;2023-02-28T03:46:10;25.30;40.20
63371;DHT22;49504;48.336;14.472;2023-02-28T03:49:38;25.30;40.20
63371;DHT22;49504;48.336;14.472;2023-02-28T03:53:06;25.30;40.10
63371;DHT22;49504;48.336;14.472;2023-02-28T03:56:33;25.30;40.00
63371;DHT22;49504;48.336;14.472;2023-02-28T04:01:58;25.30;39.60
63371;DHT22;49504;48.336;14.472;2023-02-28T04:05:19;25.30;40.20
63371;DHT22;49504;48.336;14.472;2023-02-28T04:09:39;25.30;39.60
63371;DHT22;49504;48.336;14.472;2023-02-28T04:13:01;25.30;40.20
63371;DHT22;49504;48.336;14.472;2023-02-28T04:16:22;25.30;40.20
63371;DHT22;49504;48.336;14.472;2023-02-28T04:19:43;25.30;40.10
63371;DHT22;49504;48.336;14.472;2023-02-28T04:23:04;25.30;40.20
63371;DHT22;49504;48.336;14.472;2023-02-28T04:26:28;25.30;40.20
63371;DHT22;49504;48.336;14.472;2023-02-28T04:29:50;25.30;40.10
63371;DHT22;49504;48.336;14.472;2023-02-28T04:33:11;25.30;40.20
63371;DHT22;49504;48.336;14.472;2023-02-28T04:36:33;25.30;40.10
63371;DHT22;49504;48.336;14.472;2023-02-28T04:39:54;25.30;40.20
63371;DHT22;49504;48.336;14.472;2023-02-28T04:43:16;25.30;40.30
63371;DHT22;49504;48.336;14.472;2023-02-28T04:46:38;25.30;40.20
63371;DHT22;49504;48.336;14.472;2023-02-28T04:52:55;25.30;39.70
63371;DHT22;49504;48.336;14.472;2023-02-28T04:56:17;25.30;40.30
63371;DHT22;49504;48.336;14.472;2023-02-28T04:59:39;25.30;40.20
63371;DHT22;49504;48.336;14.472;2023-02-28T05:03:00;25.30;40.20
63371;DHT22;49504;48.336;14.472;2023-02-28T05:06:23;25.30;40.20
63371;DHT22;49504;48.336;14.472;2023-02-28T05:09:47;25.30;40.10
63371;DHT22;49504;48.336;14.472;2023-02-28T05:13:10;25.30;40.00
63371;DHT22;49504;48.336;14.472;2023-02-28T05:16:33;25.30;39.90
63371;DHT22;49504;48.336;14.472;2023-02-28T05:19:54;25.30;39.80
63371;DHT22;49504;48.336;14.472;2023-02-28T05:23:16;25.30;39.70
63371;DHT22;49504;48.336;14.472;2023-02-28T05:26:41;25.30;39.60
63371;DHT22;49504;48.336;14.472;2023-02-28T05:33:12;25.30;39.30
63371;DHT22;49504;48.336;14.472;2023-02-28T05:36:36;25.30;39.70
63371;DHT22;49504;48.336;14.472;2023-02-28T05:39:57;25.30;39.50
63371;DHT22;49504;48.336;14.472;2023-02-28T05:43:19;25.30;39.00
63371;DHT22;49504;48.336;14.472;2023-02-28T05:46:40;25.30;38.90
63371;DHT22;49504;48.336;14.472;2023-02-28T05:50:04;25.20;39.10
63371;DHT22;49504;48.336;14.472;2023-02-28T05:53:26;25.20;39.20
63371;DHT22;49504;48.336;14.472;2023-02-28T05:56:47;25.20;39.30
63371;DHT22;49504;48.336;14.472;2023-02-28T06:00:10;25.20;39.10
63371;DHT22;49504;48.336;14.472;2023-02-28T06:03:35;25.20;39.00
63371;DHT22;49504;48.336;14.472;2023-02-28T06:06:57;25.20;38.90
63371;DHT22;49504;48.336;14.472;2023-02-28T06:10:19;25.20;38.90
63371;DHT22;49504;48.336;14.472;2023-02-28T06:13:40;25.20;38.90
63371;DHT22;49504;48.336;14.472;2023-02-28T06:17:02;25.20;39.00
63371;DHT22;49504;48.336;14.472;2023-02-28T06:20:24;25.20;38.90
63371;DHT22;49504;48.336;14.472;2023-02-28T06:23:47;25.20;39.00
63371;DHT22;49504;48.336;14.472;2023-02-28T06:27:08;25.20;39.00
63371;DHT22;49504;48.336;14.472;2023-02-28T06:30:29;25.20;39.00
63371;DHT22;49504;48.336;14.472;2023-02-28T06:33:51;25.20;39.00
63371;DHT22;49504;48.336;14.472;2023-02-28T06:37:12;25.20;39.00
63371;DHT22;49504;48.336;14.472;2023-02-28T06:40:35;25.20;39.00
63371;DHT22;49504;48.336;14.472;2023-02-28T06:43:56;25.20;39.10
63371;DHT22;49504;48.336;14.472;2023-02-28T06:49:51;25.10;38.60
63371;DHT22;49504;48.336;14.472;2023-02-28T06:53:12;25.20;39.10
63371;DHT22;49504;48.336;14.472;2023-02-28T06:56:33;25.20;39.10
63371;DHT22;49504;48.336;14.472;2023-02-28T06:59:55;25.10;39.00
63371;DHT22;49504;48.336;14.472;2023-02-28T07:03:16;25.10;39.10
63371;DHT22;49504;48.336;14.472;2023-02-28T07:06:38;25.20;38.90
63371;DHT22;49504;48.336;14.472;2023-02-28T07:09:59;25.10;38.80
63371;DHT22;49504;48.336;14.472;2023-02-28T07:13:23;25.10;38.80
63371;DHT22;49504;48.336;14.472;2023-02-28T07:16:45;25.10;38.80
63371;DHT22;49504;48.336;14.472;2023-02-28T07:20:07;25.10;38.90
63371;DHT22;49504;48.336;14.472;2023-02-28T07:23:30;25.10;38.90
63371;DHT22;49504;48.336;14.472;2023-02-28T07:26:51;25.10;38.90
63371;DHT22;49504;48.336;14.472;2023-02-28T07:30:13;25.10;38.70
63371;DHT22;49504;48.336;14.472;2023-02-28T07:33:35;25.10;38.90
63371;DHT22;49504;48.336;14.472;2023-02-28T07:36:56;25.10;38.90
63371;DHT22;49504;48.336;14.472;2023-02-28T07:40:19;25.10;38.90
63371;DHT22;49504;48.336;14.472;2023-02-28T07:43:40;25.10;38.90
63371;DHT22;49504;48.336;14.472;2023-02-28T07:47:01;25.10;38.90
63371;DHT22;49504;48.336;14.472;2023-02-28T07:52:17;25.10;38.40
63371;DHT22;49504;48.336;14.472;2023-02-28T07:55:38;25.10;38.90
63371;DHT22;49504;48.336;14.472;2023-02-28T07:59:00;25.10;39.00
63371;DHT22;49504;48.336;14.472;2023-02-28T08:02:21;25.10;39.00
63371;DHT22;49504;48.336;14.472;2023-02-28T08:05:42;25.10;39.00
63371;DHT22;49504;48.336;14.472;2023-02-28T08:09:04;25.10;38.90
63371;DHT22;49504;48.336;14.472;2023-02-28T08:12:26;25.10;38.90
63371;DHT22;49504;48.336;14.472;2023-02-28T08:15:47;25.10;38.90
63371;DHT22;49504;48.336;14.472;2023-02-28T08:19:08;25.10;38.90
63371;DHT22;49504;48.336;14.472;2023-02-28T08:22:29;25.10;38.90
63371;DHT22;49504;48.336;14.472;2023-02-28T08:25:55;25.10;38.90
63371;DHT22;49504;48.336;14.472;2023-02-28T08:29:16;25.10;38.90
63371;DHT22;49504;48.336;14.472;2023-02-28T08:32:37;25.10;38.90
63371;DHT22;49504;48.336;14.472;2023-02-28T08:35:59;25.10;38.90
63371;DHT22;49504;48.336;14.472;2023-02-28T08:39:20;25.20;39.00
63371;DHT22;49504;48.336;14.472;2023-02-28T08:42:42;25.10;38.90
63371;DHT22;49504;48.336;14.472;2023-02-28T08:46:04;25.20;39.00
63371;DHT22;49504;48.336;14.472;2023-02-28T08:49:26;25.20;39.10
63371;DHT22;49504;48.336;14.472;2023-02-28T08:52:48;25.20;39.00
63371;DHT22;49504;48.336;14.472;2023-02-28T08:56:11;25.20;39.00
63371;DHT22;49504;48.336;14.472;2023-02-28T08:59:34;25.20;39.00
63371;DHT22;49504;48.336;14.472;2023-02-28T09:02:56;25.20;39.10
63371;DHT22;49504;48.336;14.472;2023-02-28T09:06:18;25.20;39.00
63371;DHT22;49504;48.336;14.472;2023-02-28T09:09:41;25.20;39.00
63371;DHT22;49504;48.336;14.472;2023-02-28T09:13:02;25.20;39.10
63371;DHT22;49504;48.336;14.472;2023-02-28T09:16:25;25.20;39.10
63371;DHT22;49504;48.336;14.472;2023-02-28T09:19:47;25.20;39.10
63371;DHT22;49504;48.336;14.472;2023-02-28T09:23:10;25.30;39.20
63371;DHT22;49504;48.336;14.472;2023-02-28T09:26:32;25.30;39.30
63371;DHT22;49504;48.336;14.472;2023-02-28T09:29:53;25.30;39.40
63371;DHT22;49504;48.336;14.472;2023-02-28T09:33:16;25.30;39.40
63371;DHT22;49504;48.336;14.472;2023-02-28T09:36:37;25.30;39.40
63371;DHT22;49504;48.336;14.472;2023-02-28T09:41:27;25.30;38.80
63371;DHT22;49504;48.336;14.472;2023-02-28T09:44:53;25.30;39.40
63371;DHT22;49504;48.336;14.472;2023-02-28T09:48:19;25.30;39.40
63371;DHT22;49504;48.336;14.472;2023-02-28T09:51:49;25.30;39.30
63371;DHT22;49504;48.336;14.472;2023-02-28T09:55:20;25.40;39.30
63371;DHT22;49504;48.336;14.472;2023-02-28T09:58:50;25.30;39.30
63371;DHT22;49504;48.336;14.472;2023-02-28T10:02:32;25.30;39.60
63371;DHT22;49504;48.336;14.472;2023-02-28T10:06:07;25.30;39.80
63371;DHT22;49504;48.336;14.472;2023-02-28T10:09:33;25.40;40.00
63371;DHT22;49504;48.336;14.472;2023-02-28T10:12:59;25.40;40.10
63371;DHT22;49504;48.336;14.472;2023-02-28T10:16:28;25.40;40.10
63371;DHT22;49504;48.336;14.472;2023-02-28T10:19:58;25.40;39.90
63371;DHT22;49504;48.336;14.472;2023-02-28T10:23:24;25.40;39.60
63371;DHT22;49504;48.336;14.472;2023-02-28T10:26:48;25.40;39.40
63371;DHT22;49504;48.336;14.472;2023-02-28T10:30:11;25.40;39.60
63371;DHT22;49504;48.336;14.472;2023-02-28T10:33:35;25.50;39.80
63371;DHT22;49504;48.336;14.472;2023-02-28T10:36:58;25.50;40.00
63371;DHT22;49504;48.336;14.472;2023-02-28T10:40:30;25.50;40.20
63371;DHT22;49504;48.336;14.472;2023-02-28T10:43:53;25.50;40.10
63371;DHT22;49504;48.336;14.472;2023-02-28T10:47:34;25.50;40.30
63371;DHT22;49504;48.336;14.472;2023-02-28T10:50:58;25.50;40.30
63371;DHT22;49504;48.336;14.472;2023-02-28T10:54:22;25.60;40.40
63371;DHT22;49504;48.336;14.472;2023-02-28T10:57:44;25.60;40.40
63371;DHT22;49504;48.336;14.472;2023-02-28T11:01:13;25.60;40.50
63371;DHT22;49504;48.336;14.472;2023-02-28T11:04:37;25.60;40.40
63371;DHT22;49504;48.336;14.472;2023-02-28T11:08:06;25.60;40.50
63371;DHT22;49504;48.336;14.472;2023-02-28T11:11:43;25.60;40.50
63371;DHT22;49504;48.336;14.472;2023-02-28T11:15:18;25.60;40.50
63371;DHT22;49504;48.336;14.472;2023-02-28T11:18:46;25.60;40.70
63371;DHT22;49504;48.336;14.472;2023-02-28T11:22:09;25.70;40.70
63371;DHT22;49504;48.336;14.472;2023-02-28T11:25:35;25.70;40.40
63371;DHT22;49504;48.336;14.472;2023-02-28T11:29:10;25.70;40.30
63371;DHT22;49504;48.336;14.472;2023-02-28T11:32:33;25.70;40.30
63371;DHT22;49504;48.336;14.472;2023-02-28T11:35:57;25.70;41.40
63371;DHT22;49504;48.336;14.472;2023-02-28T11:39:19;25.80;42.50
63371;DHT22;49504;48.336;14.472;2023-02-28T11:42:55;25.80;43.30
63371;DHT22;49504;48.336;14.472;2023-02-28T11:46:27;25.80;42.70
63371;DHT22;49504;48.336;14.472;2023-02-28T11:50:11;25.80;42.50
63371;DHT22;49504;48.336;14.472;2023-02-28T11:53:51;25.80;42.50
63371;DHT22;49504;48.336;14.472;2023-02-28T11:57:44;25.80;42.50
63371;DHT22;49504;48.336;14.472;2023-02-28T12:01:28;25.90;43.10
63371;DHT22;49504;48.336;14.472;2023-02-28T12:05:14;25.90;43.30
63371;DHT22;49504;48.336;14.472;2023-02-28T12:08:49;25.90;43.20
63371;DHT22;49504;48.336;14.472;2023-02-28T12:12:28;26.00;43.30
63371;DHT22;49504;48.336;14.472;2023-02-28T12:16:20;26.00;43.30
63371;DHT22;49504;48.336;14.472;2023-02-28T12:19:57;26.00;42.70
63371;DHT22;49504;48.336;14.472;2023-02-28T12:23:45;26.00;42.50
63371;DHT22;49504;48.336;14.472;2023-02-28T12:27:14;26.00;42.20
63371;DHT22;49504;48.336;14.472;2023-02-28T12:30:43;25.90;42.00
63371;DHT22;49504;48.336;14.472;2023-02-28T12:34:15;26.00;41.90
63371;DHT22;49504;48.336;14.472;2023-02-28T12:37:38;26.00;41.70
63371;DHT22;49504;48.336;14.472;2023-02-28T12:41:03;25.90;41.60
63371;DHT22;49504;48.336;14.472;2023-02-28T12:44:30;26.00;41.50
63371;DHT22;49504;48.336;14.472;2023-02-28T12:47:58;25.90;41.40
63371;DHT22;49504;48.336;14.472;2023-02-28T12:51:23;25.90;41.40
63371;DHT22;49504;48.336;14.472;2023-02-28T12:55:42;25.90;40.50
63371;DHT22;49504;48.336;14.472;2023-02-28T12:59:13;25.90;41.10
63371;DHT22;49504;48.336;14.472;2023-02-28T13:07:17;25.90;42.00
63371;DHT22;49504;48.336;14.472;2023-02-28T13:10:52;25.90;43.20
63371;DHT22;49504;48.336;14.472;2023-02-28T13:14:23;25.90;42.30
63371;DHT22;49504;48.336;14.472;2023-02-28T13:17:48;25.90;42.10
63371;DHT22;49504;48.336;14.472;2023-02-28T13:21:22;25.90;42.20
63371;DHT22;49504;48.336;14.472;2023-02-28T13:24:47;25.90;42.30
63371;DHT22;49504;48.336;14.472;2023-02-28T13:28:12;25.80;43.40
63371;DHT22;49504;48.336;14.472;2023-02-28T13:35:44;25.80;42.50
63371;DHT22;49504;48.336;14.472;2023-02-28T13:39:45;25.80;42.50
63371;DHT22;49504;48.336;14.472;2023-02-28T13:43:08;25.80;41.90
63371;DHT22;49504;48.336;14.472;2023-02-28T13:46:31;25.80;41.80
63371;DHT22;49504;48.336;14.472;2023-02-28T13:49:53;25.70;41.90
63371;DHT22;49504;48.336;14.472;2023-02-28T13:53:51;25.80;41.80
63371;DHT22;49504;48.336;14.472;2023-02-28T13:57:25;25.70;41.70
63371;DHT22;49504;48.336;14.472;2023-02-28T14:01:13;25.80;41.50
63371;DHT22;49504;48.336;14.472;2023-02-28T14:05:04;25.70;41.20
63371;DHT22;49504;48.336;14.472;2023-02-28T14:08:26;25.70;41.20
63371;DHT22;49504;48.336;14.472;2023-02-28T14:11:48;25.70;41.30
63371;DHT22;49504;48.336;14.472;2023-02-28T14:19:13;25.70;41.30
63371;DHT22;49504;48.336;14.472;2023-02-28T14:22:53;25.70;41.20
63371;DHT22;49504;48.336;14.472;2023-02-28T14:26:31;25.70;41.10
63371;DHT22;49504;48.336;14.472;2023-02-28T14:34:29;25.70;41.20
63371;DHT22;49504;48.336;14.472;2023-02-28T14:37:58;25.70;41.00
63371;DHT22;49504;48.336;14.472;2023-02-28T14:41:29;25.70;41.00
63371;DHT22;49504;48.336;14.472;2023-02-28T14:44:54;25.70;41.00
63371;DHT22;49504;48.336;14.472;2023-02-28T14:48:17;25.60;40.80
63371;DHT22;49504;48.336;14.472;2023-02-28T14:51:40;25.70;40.90
63371;DHT22;49504;48.336;14.472;2023-02-28T14:55:05;25.70;40.90
63371;DHT22;49504;48.336;14.472;2023-02-28T15:00:27;25.60;40.40
63371;DHT22;49504;48.336;14.472;2023-02-28T15:03:57;25.70;40.90
63371;DHT22;49504;48.336;14.472;2023-02-28T15:07:20;25.70;40.80
63371;DHT22;49504;48.336;14.472;2023-02-28T15:10:42;25.70;40.80
63371;DHT22;49504;48.336;14.472;2023-02-28T15:14:06;25.60;40.70
63371;DHT22;49504;48.336;14.472;2023-02-28T15:17:29;25.70;40.70
63371;DHT22;49504;48.336;14.472;2023-02-28T15:20:51;25.60;40.30
63371;DHT22;49504;48.336;14.472;2023-02-28T15:24:15;25.60;40.20
63371;DHT22;49504;48.336;14.472;2023-02-28T15:27:43;25.60;40.10
63371;DHT22;49504;48.336;14.472;2023-02-28T15:31:19;25.60;40.20
63371;DHT22;49504;48.336;14.472;2023-02-28T15:34:44;25.60;40.20
63371;DHT22;49504;48.336;14.472;2023-02-28T15:38:15;25.60;40.10
63371;DHT22;49504;48.336;14.472;2023-02-28T15:42:30;25.60;39.80
63371;DHT22;49504;48.336;14.472;2023-02-28T15:45:57;25.60;40.30
63371;DHT22;49504;48.336;14.472;2023-02-28T15:49:21;25.60;40.40
63371;DHT22;49504;48.336;14.472;2023-02-28T15:52:44;25.60;40.20
63371;DHT22;49504;48.336;14.472;2023-02-28T15:56:23;25.60;40.30
63371;DHT22;49504;48.336;14.472;2023-02-28T15:59:53;25.60;40.50
63371;DHT22;49504;48.336;14.472;2023-02-28T16:03:25;25.60;40.40
63371;DHT22;49504;48.336;14.472;2023-02-28T16:07:01;25.60;40.40
63371;DHT22;49504;48.336;14.472;2023-02-28T16:10:25;25.60;40.40
63371;DHT22;49504;48.336;14.472;2023-02-28T16:13:49;25.60;40.30
63371;DHT22;49504;48.336;14.472;2023-02-28T16:17:20;25.60;40.30
63371;DHT22;49504;48.336;14.472;2023-02-28T16:20:46;25.70;40.40
63371;DHT22;49504;48.336;14.472;2023-02-28T16:24:08;25.60;40.30
63371;DHT22;49504;48.336;14.472;2023-02-28T16:27:35;25.60;40.10
63371;DHT22;49504;48.336;14.472;2023-02-28T16:32:59;25.60;39.70
63371;DHT22;49504;48.336;14.472;2023-02-28T16:36:23;25.60;40.30
63371;DHT22;49504;48.336;14.472;2023-02-28T16:39:45;25.60;40.30
63371;DHT22;49504;48.336;14.472;2023-02-28T16:43:12;25.60;40.30
63371;DHT22;49504;48.336;14.472;2023-02-28T16:46:36;25.60;40.30
63371;DHT22;49504;48.336;14.472;2023-02-28T16:50:30;25.60;39.70
63371;DHT22;49504;48.336;14.472;2023-02-28T17:57:50;25.80;40.00
63371;DHT22;49504;48.336;14.472;2023-02-28T18:01:12;25.90;40.00
63371;DHT22;49504;48.336;14.472;2023-02-28T18:05:22;25.90;39.40
63371;DHT22;49504;48.336;14.472;2023-02-28T18:11:39;25.80;39.40
63371;DHT22;49504;48.336;14.472;2023-02-28T18:15:00;25.80;39.90
63371;DHT22;49504;48.336;14.472;2023-02-28T18:18:22;25.80;39.90
63371;DHT22;49504;48.336;14.472;2023-02-28T18:21:43;25.80;40.00
63371;DHT22;49504;48.336;14.472;2023-02-28T18:25:08;25.80;40.10
63371;DHT22;49504;48.336;14.472;2023-02-28T18:28:32;25.70;40.00
63371;DHT22;49504;48.336;14.472;2023-02-28T18:31:54;25.70;40.80
63371;DHT22;49504;48.336;14.472;2023-02-28T18:35:16;25.70;40.30
63371;DHT22;49504;48.336;14.472;2023-02-28T18:38:38;25.70;40.20
63371;DHT22;49504;48.336;14.472;2023-02-28T18:42:39;25.70;39.80
63371;DHT22;49504;48.336;14.472;2023-02-28T18:46:03;25.70;40.40
63371;DHT22;49504;48.336;14.472;2023-02-28T18:49:24;25.60;40.30
63371;DHT22;49504;48.336;14.472;2023-02-28T18:52:45;25.60;40.30
63371;DHT22;49504;48.336;14.472;2023-02-28T18:56:09;25.60;40.30
63371;DHT22;49504;48.336;14.472;2023-02-28T18:59:32;25.60;40.30
63371;DHT22;49504;48.336;14.472;2023-02-28T19:02:53;25.60;40.30
63371;DHT22;49504;48.336;14.472;2023-02-28T19:06:15;25.60;40.50
63371;DHT22;49504;48.336;14.472;2023-02-28T19:09:36;25.70;40.90
63371;DHT22;49504;48.336;14.472;2023-02-28T19:12:58;25.60;40.60
63371;DHT22;49504;48.336;14.472;2023-02-28T19:16:21;25.60;40.60
63371;DHT22;49504;48.336;14.472;2023-02-28T19:19:43;25.60;40.90
63371;DHT22;49504;48.336;14.472;2023-02-28T19:23:04;25.60;40.80
63371;DHT22;49504;48.336;14.472;2023-02-28T19:26:25;25.60;41.50
63371;DHT22;49504;48.336;14.472;2023-02-28T19:29:47;25.60;40.70
63371;DHT22;49504;48.336;14.472;2023-02-28T19:33:11;25.60;40.60
63371;DHT22;49504;48.336;14.472;2023-02-28T19:36:32;25.60;40.60
63371;DHT22;49504;48.336;14.472;2023-02-28T19:39:54;25.60;40.60
63371;DHT22;49504;48.336;14.472;2023-02-28T19:43:15;25.60;40.50
63371;DHT22;49504;48.336;14.472;2023-02-28T19:46:36;25.70;40.60
63371;DHT22;49504;48.336;14.472;2023-02-28T19:49:59;25.60;40.50
63371;DHT22;49504;48.336;14.472;2023-02-28T19:53:20;25.60;40.50
63371;DHT22;49504;48.336;14.472;2023-02-28T19:56:41;25.60;40.50
63371;DHT22;49504;48.336;14.472;2023-02-28T20:00:03;25.60;40.50
63371;DHT22;49504;48.336;14.472;2023-02-28T20:03:33;25.60;40.10
63371;DHT22;49504;48.336;14.472;2023-02-28T20:06:55;25.60;40.30
63371;DHT22;49504;48.336;14.472;2023-02-28T20:13:13;25.60;39.90
63371;DHT22;49504;48.336;14.472;2023-02-28T20:16:34;25.60;40.60
63371;DHT22;49504;48.336;14.472;2023-02-28T20:19:55;25.60;40.60
63371;DHT22;49504;48.336;14.472;2023-02-28T20:23:16;25.60;40.60
63371;DHT22;49504;48.336;14.472;2023-02-28T20:26:38;25.60;40.60
63371;DHT22;49504;48.336;14.472;2023-02-28T20:30:00;25.60;40.60
63371;DHT22;49504;48.336;14.472;2023-02-28T20:33:22;25.60;40.60
63371;DHT22;49504;48.336;14.472;2023-02-28T20:36:43;25.60;40.60
63371;DHT22;49504;48.336;14.472;2023-02-28T20:40:05;25.60;40.60
63371;DHT22;49504;48.336;14.472;2023-02-28T20:46:55;25.60;40.10
63371;DHT22;49504;48.336;14.472;2023-02-28T20:50:17;25.60;40.70
63371;DHT22;49504;48.336;14.472;2023-02-28T20:53:38;25.60;40.70
63371;DHT22;49504;48.336;14.472;2023-02-28T20:56:59;25.60;40.70
63371;DHT22;49504;48.336;14.472;2023-02-28T21:00:20;25.50;40.70
63371;DHT22;49504;48.336;14.472;2023-02-28T21:03:44;25.50;40.70
63371;DHT22;49504;48.336;14.472;2023-02-28T21:07:06;25.50;40.70
63371;DHT22;49504;48.336;14.472;2023-02-28T21:10:27;25.50;40.60
63371;DHT22;49504;48.336;14.472;2023-02-28T21:13:49;25.50;40.70
63371;DHT22;49504;48.336;14.472;2023-02-28T21:17:10;25.50;40.60
63371;DHT22;49504;48.336;14.472;2023-02-28T21:22:09;25.50;40.00
63371;DHT22;49504;48.336;14.472;2023-02-28T21:25:31;25.50;40.60
63371;DHT22;49504;48.336;14.472;2023-02-28T21:28:55;25.50;40.60
63371;DHT22;49504;48.336;14.472;2023-02-28T21:32:17;25.50;40.50
63371;DHT22;49504;48.336;14.472;2023-02-28T21:35:38;25.50;40.60
63371;DHT22;49504;48.336;14.472;2023-02-28T21:39:04;25.50;40.50
63371;DHT22;49504;48.336;14.472;2023-02-28T21:42:27;25.50;40.50
63371;DHT22;49504;48.336;14.472;2023-02-28T21:45:49;25.50;40.50
63371;DHT22;49504;48.336;14.472;2023-02-28T21:49:10;25.50;40.50
63371;DHT22;49504;48.336;14.472;2023-02-28T21:52:31;25.50;40.60
63371;DHT22;49504;48.336;14.472;2023-02-28T21:55:53;25.50;40.60
63371;DHT22;49504;48.336;14.472;2023-02-28T21:59:15;25.50;40.50
63371;DHT22;49504;48.336;14.472;2023-02-28T22:02:36;25.50;40.60
63371;DHT22;49504;48.336;14.472;2023-02-28T22:05:57;25.50;40.60
63371;DHT22;49504;48.336;14.472;2023-02-28T22:09:18;25.50;40.50
63371;DHT22;49504;48.336;14.472;2023-02-28T22:12:41;25.50;40.50
63371;DHT22;49504;48.336;14.472;2023-02-28T22:16:04;25.50;40.60
63371;DHT22;49504;48.336;14.472;2023-02-28T22:19:26;25.50;40.50
63371;DHT22;49504;48.336;14.472;2023-02-28T22:22:47;25.50;40.50
63371;DHT22;49504;48.336;14.472;2023-02-28T22:26:11;25.50;40.60
63371;DHT22;49504;48.336;14.472;2023-02-28T22:29:35;25.50;40.60
63371;DHT22;49504;48.336;14.472;2023-02-28T22:32:57;25.50;41.20
63371;DHT22;49504;48.336;14.472;2023-02-28T22:36:19;25.40;40.50
63371;DHT22;49504;48.336;14.472;2023-02-28T22:39:40;25.40;40.50
63371;DHT22;49504;48.336;14.472;2023-02-28T22:43:01;25.40;40.50
63371;DHT22;49504;48.336;14.472;2023-02-28T22:46:27;25.40;40.50
63371;DHT22;49504;48.336;14.472;2023-02-28T22:49:49;25.40;40.50
63371;DHT22;49504;48.336;14.472;2023-02-28T22:53:10;25.50;40.60
63371;DHT22;49504;48.336;14.472;2023-02-28T22:56:32;25.40;40.50
63371;DHT22;49504;48.336;14.472;2023-02-28T22:59:53;25.40;40.50
63371;DHT22;49504;48.336;14.472;2023-02-28T23:03:15;25.40;40.50
63371;DHT22;49504;48.336;14.472;2023-02-28T23:06:38;25.40;40.50
63371;DHT22;49504;48.336;14.472;2023-02-28T23:10:03;25.40;40.50
63371;DHT22;49504;48.336;14.472;2023-02-28T23:13:25;25.40;40.50